Flight Track Log - Related Links

Times and Time Zones

All times are in EDT time to prevent confusion due to time zone crossing. See the UPS1122 flight status page for this flight to view local times or setup timezone preferences in your user account.

Time Position Orientation Groundspeed Altitude Reporting Facility
EDT Latitude Longitude Course Direction KTS MPH feet Rate Location/Type
Thu 03:32:32 AM 39.8667 -75.2500 90° East 160 184 800  Level Philadelphia TRACON
Thu 03:32:50 AM 39.8667 -75.2333 90° East 156 180 1,600 1,688 Climbing Philadelphia TRACON
Thu 03:34:40 AM 39.8881 -75.1022 78° East 224 258 4,400 1,953 Climbing New Center
Thu 03:35:42 AM 39.8606 -75.0031 110° East 265 305 7,200 2,700 Climbing New Center
Thu 03:36:40 AM 39.8350 -74.8961 107° East 296 341 9,800 2,214 Climbing New Center
Thu 03:41:56 AM 40.2270 -74.3720 107° East 410 472 21,000 2,030 Climbing FlightAware
Thu 03:42:11 AM 40.2490 -74.3510 36° Northeast 408 470 21,000  Level FlightAware
Thu 03:42:52 AM 40.3140 -74.2910 35° Northeast 414 476 21,000  Level FlightAware
Thu 03:43:31 AM 40.3730 -74.2340 36° Northeast 416 479 21,000  Level FlightAware
Thu 03:44:16 AM 40.4450 -74.1670 35° Northeast 419 482 21,000  Level FlightAware
Thu 03:44:56 AM 40.5090 -74.1070 35° Northeast 422 486 21,000  Level FlightAware
Thu 03:45:36 AM 40.5730 -74.0460 36° Northeast 423 487 21,000  Level FlightAware
Thu 03:46:23 AM 40.6480 -73.9760 35° Northeast 423 487 21,000  Level FlightAware
Thu 03:47:04 AM 40.7130 -73.9140 36° Northeast 419 482 21,000  Level FlightAware
Thu 03:47:44 AM 40.7760 -73.8540 36° Northeast 418 481 21,000  Level FlightAware
Thu 03:48:28 AM 40.8450 -73.7880 36° Northeast 416 479 21,000  Level FlightAware
Thu 03:49:09 AM 40.9080 -73.7280 36° Northeast 415 478 21,000  Level FlightAware
Thu 03:49:52 AM 40.9760 -73.6630 36° Northeast 414 476 21,000  Level FlightAware
Thu 03:50:32 AM 41.0380 -73.6030 36° Northeast 413 475 21,000  Level FlightAware
Thu 03:51:17 AM 41.1070 -73.5370 36° Northeast 412 474 21,000 -706 Level FlightAware
Thu 03:51:57 AM 41.1640 -73.4680 42° Northeast 407 468 20,000 -2,519 Descending FlightAware
Thu 03:52:38 AM 41.2180 -73.3960 45° Northeast 393 452 17,600 -3,488 Descending FlightAware
Thu 03:53:23 AM 41.2810 -73.3280 39° Northeast 384 442 15,000 -3,357 Descending FlightAware
Thu 03:54:02 AM 41.3340 -73.2710 39° Northeast 375 432 12,900 -1,630 Descending FlightAware
Thu 03:54:44 AM 41.3820 -73.2180 40° Northeast 375 432 12,800 -70 Descending FlightAware
Thu 03:55:28 AM 41.4330 -73.1640 38° Northeast 375 432 12,800 -1,648 Level FlightAware
Thu 03:56:15 AM 41.5022 -73.1275 38° Northeast 315 362 10,300 -2,692 Descending Boston Center
Thu 03:57:15 AM 41.5692 -73.0700 33° Northeast 295 339 8,000 -1,900 Descending Boston Center
Thu 03:58:15 AM 41.6319 -73.0150 33° Northeast 281 323 6,500 -1,350 Descending Boston Center
Thu 03:59:15 AM 41.6864 -72.9656 34° Northeast 261 300 5,300 -1,300 Descending Boston Center
Thu 04:00:15 AM 41.7386 -72.9214 32° Northeast 233 268 3,900 -1,100 Descending Boston Center
Thu 04:01:15 AM 41.7869 -72.8828 31° Northeast 208 239 3,100 -450 Descending Boston Center
Thu 04:02:15 AM 41.8225 -72.8411 41° Northeast 192 221 3,000 -350 Descending Boston Center
Thu 04:03:15 AM 41.8539 -72.8025 42° Northeast 161 185 2,400 -700 Descending Boston Center
Thu 04:04:15 AM 41.8811 -72.7664 45° Northeast 145 167 1,600 -700 Descending Boston Center
Thu 04:05:15 AM 41.9081 -72.7303 45° Northeast 138 159 1,000 -600 Descending Boston Center
Thu 04:06:15 AM 41.9269 -72.7053 45° Northeast 132 152 400 -600 Descending Boston Center
Thu 04:09:00 AM 41.9333 -72.6833 29° Northeast  Level FlightAware
Thu 04:16:00 AM 41.9392 -72.6834 29° Northeast  Level Estimated
Thu 04:17:00 AM 41.9333 -72.6833 29° Northeast  Level FlightAware
Thu 04:18:00 AM 41.9392 -72.6834 29° Northeast  Level Estimated
Thu 04:19:00 AM 41.9333 -72.6833 29° Northeast  Level FlightAware

Login

Don't have an account? Register now (free) for customized features, flight alerts, and more!